sensor_id;sensor_type;location;lat;lon;timestamp;P1;durP1;ratioP1;P2;durP2;ratioP2
823;SDS011;373;49.342;8.146;2024-03-02T00:01:31;6.68;;;5.43;;
823;SDS011;373;49.342;8.146;2024-03-02T00:03:59;5.80;;;4.60;;
823;SDS011;373;49.342;8.146;2024-03-02T00:06:26;6.03;;;4.57;;
823;SDS011;373;49.342;8.146;2024-03-02T00:08:57;5.30;;;4.75;;
823;SDS011;373;49.342;8.146;2024-03-02T00:11:25;4.90;;;4.50;;
823;SDS011;373;49.342;8.146;2024-03-02T00:13:53;6.30;;;5.13;;
823;SDS011;373;49.342;8.146;2024-03-02T00:16:21;5.63;;;4.10;;
823;SDS011;373;49.342;8.146;2024-03-02T00:18:50;4.65;;;3.72;;
823;SDS011;373;49.342;8.146;2024-03-02T00:21:17;3.58;;;3.28;;
823;SDS011;373;49.342;8.146;2024-03-02T00:23:46;3.88;;;3.47;;
823;SDS011;373;49.342;8.146;2024-03-02T00:26:17;4.55;;;4.07;;
823;SDS011;373;49.342;8.146;2024-03-02T00:28:44;4.13;;;3.72;;
823;SDS011;373;49.342;8.146;2024-03-02T00:31:12;3.63;;;3.25;;
823;SDS011;373;49.342;8.146;2024-03-02T00:33:42;3.95;;;3.55;;
823;SDS011;373;49.342;8.146;2024-03-02T00:36:10;3.47;;;3.03;;
823;SDS011;373;49.342;8.146;2024-03-02T00:38:42;4.60;;;3.35;;
823;SDS011;373;49.342;8.146;2024-03-02T00:41:15;3.53;;;3.00;;
823;SDS011;373;49.342;8.146;2024-03-02T00:43:45;2.45;;;2.28;;
823;SDS011;373;49.342;8.146;2024-03-02T00:46:17;3.90;;;2.90;;
823;SDS011;373;49.342;8.146;2024-03-02T00:48:54;4.25;;;3.17;;
823;SDS011;373;49.342;8.146;2024-03-02T00:51:22;3.05;;;2.75;;
823;SDS011;373;49.342;8.146;2024-03-02T00:53:51;3.25;;;2.95;;
823;SDS011;373;49.342;8.146;2024-03-02T00:56:21;2.67;;;2.47;;
823;SDS011;373;49.342;8.146;2024-03-02T00:58:49;3.22;;;2.92;;
823;SDS011;373;49.342;8.146;2024-03-02T01:01:17;3.42;;;2.97;;
823;SDS011;373;49.342;8.146;2024-03-02T01:03:45;3.42;;;3.13;;
823;SDS011;373;49.342;8.146;2024-03-02T01:06:15;2.92;;;2.70;;
823;SDS011;373;49.342;8.146;2024-03-02T01:08:43;3.40;;;3.10;;
823;SDS011;373;49.342;8.146;2024-03-02T01:11:11;4.25;;;3.13;;
823;SDS011;373;49.342;8.146;2024-03-02T01:13:38;3.42;;;2.90;;
823;SDS011;373;49.342;8.146;2024-03-02T01:16:05;3.65;;;3.30;;
823;SDS011;373;49.342;8.146;2024-03-02T01:18:33;3.65;;;3.30;;
823;SDS011;373;49.342;8.146;2024-03-02T01:21:00;3.85;;;2.78;;
823;SDS011;373;49.342;8.146;2024-03-02T01:23:28;3.35;;;3.05;;
823;SDS011;373;49.342;8.146;2024-03-02T01:25:55;3.35;;;2.90;;
823;SDS011;373;49.342;8.146;2024-03-02T01:28:22;3.35;;;3.05;;
823;SDS011;373;49.342;8.146;2024-03-02T01:30:49;3.47;;;3.15;;
823;SDS011;373;49.342;8.146;2024-03-02T01:33:17;3.08;;;2.80;;
823;SDS011;373;49.342;8.146;2024-03-02T01:35:44;3.42;;;3.13;;
823;SDS011;373;49.342;8.146;2024-03-02T01:38:11;4.25;;;3.30;;
823;SDS011;373;49.342;8.146;2024-03-02T01:40:39;3.92;;;3.47;;
823;SDS011;373;49.342;8.146;2024-03-02T01:43:09;3.80;;;3.40;;
823;SDS011;373;49.342;8.146;2024-03-02T01:45:36;3.35;;;3.05;;
823;SDS011;373;49.342;8.146;2024-03-02T01:48:04;4.15;;;3.78;;
823;SDS011;373;49.342;8.146;2024-03-02T01:50:32;3.60;;;3.30;;
823;SDS011;373;49.342;8.146;2024-03-02T01:53:00;3.88;;;3.50;;
823;SDS011;373;49.342;8.146;2024-03-02T01:55:28;2.80;;;2.60;;
823;SDS011;373;49.342;8.146;2024-03-02T01:57:56;3.67;;;2.97;;
823;SDS011;373;49.342;8.146;2024-03-02T02:00:24;3.55;;;3.22;;
823;SDS011;373;49.342;8.146;2024-03-02T02:02:51;3.40;;;2.50;;
823;SDS011;373;49.342;8.146;2024-03-02T02:05:19;3.30;;;3.00;;
823;SDS011;373;49.342;8.146;2024-03-02T02:07:46;3.25;;;2.92;;
823;SDS011;373;49.342;8.146;2024-03-02T02:10:13;4.07;;;3.08;;
823;SDS011;373;49.342;8.146;2024-03-02T02:12:40;3.55;;;3.25;;
823;SDS011;373;49.342;8.146;2024-03-02T02:15:28;4.22;;;3.40;;
823;SDS011;373;49.342;8.146;2024-03-02T02:17:56;4.07;;;3.67;;
823;SDS011;373;49.342;8.146;2024-03-02T02:20:24;4.78;;;4.05;;
823;SDS011;373;49.342;8.146;2024-03-02T02:22:56;5.18;;;3.53;;
823;SDS011;373;49.342;8.146;2024-03-02T02:25:24;3.80;;;3.40;;
823;SDS011;373;49.342;8.146;2024-03-02T02:27:51;3.80;;;3.00;;
823;SDS011;373;49.342;8.146;2024-03-02T02:30:19;3.50;;;3.20;;
823;SDS011;373;49.342;8.146;2024-03-02T02:32:48;3.28;;;2.97;;
823;SDS011;373;49.342;8.146;2024-03-02T02:35:14;3.10;;;2.90;;
823;SDS011;373;49.342;8.146;2024-03-02T02:37:42;3.33;;;3.10;;
823;SDS011;373;49.342;8.146;2024-03-02T02:40:11;3.38;;;3.08;;
823;SDS011;373;49.342;8.146;2024-03-02T02:42:39;3.70;;;3.33;;
823;SDS011;373;49.342;8.146;2024-03-02T02:45:07;3.67;;;3.40;;
823;SDS011;373;49.342;8.146;2024-03-02T02:47:34;4.68;;;4.07;;
823;SDS011;373;49.342;8.146;2024-03-02T02:50:02;4.35;;;3.42;;
823;SDS011;373;49.342;8.146;2024-03-02T02:52:32;5.22;;;3.67;;
823;SDS011;373;49.342;8.146;2024-03-02T02:55:02;3.58;;;3.28;;
823;SDS011;373;49.342;8.146;2024-03-02T02:57:32;3.80;;;3.40;;
823;SDS011;373;49.342;8.146;2024-03-02T03:00:01;3.22;;;2.75;;
823;SDS011;373;49.342;8.146;2024-03-02T03:02:35;3.65;;;2.80;;
823;SDS011;373;49.342;8.146;2024-03-02T03:05:05;3.80;;;3.40;;
823;SDS011;373;49.342;8.146;2024-03-02T03:07:32;2.72;;;2.53;;
823;SDS011;373;49.342;8.146;2024-03-02T03:10:00;2.42;;;2.22;;
823;SDS011;373;49.342;8.146;2024-03-02T03:12:28;2.85;;;2.45;;
823;SDS011;373;49.342;8.146;2024-03-02T03:14:57;3.47;;;2.88;;
823;SDS011;373;49.342;8.146;2024-03-02T03:17:25;2.55;;;2.30;;
823;SDS011;373;49.342;8.146;2024-03-02T03:19:52;2.20;;;2.00;;
823;SDS011;373;49.342;8.146;2024-03-02T03:22:20;2.58;;;2.25;;
823;SDS011;373;49.342;8.146;2024-03-02T03:24:47;2.30;;;2.10;;
823;SDS011;373;49.342;8.146;2024-03-02T03:27:14;2.90;;;2.67;;
823;SDS011;373;49.342;8.146;2024-03-02T03:29:41;2.65;;;2.08;;
823;SDS011;373;49.342;8.146;2024-03-02T03:32:09;3.50;;;2.25;;
823;SDS011;373;49.342;8.146;2024-03-02T03:34:36;2.17;;;1.80;;
823;SDS011;373;49.342;8.146;2024-03-02T03:37:04;2.33;;;1.92;;
823;SDS011;373;49.342;8.146;2024-03-02T03:39:31;2.65;;;2.00;;
823;SDS011;373;49.342;8.146;2024-03-02T03:42:00;2.40;;;2.20;;
823;SDS011;373;49.342;8.146;2024-03-02T03:44:27;2.58;;;2.00;;
823;SDS011;373;49.342;8.146;2024-03-02T03:46:54;2.78;;;2.47;;
823;SDS011;373;49.342;8.146;2024-03-02T03:49:22;2.58;;;2.20;;
823;SDS011;373;49.342;8.146;2024-03-02T03:51:49;2.85;;;2.33;;
823;SDS011;373;49.342;8.146;2024-03-02T03:54:16;2.53;;;2.17;;
823;SDS011;373;49.342;8.146;2024-03-02T03:56:43;2.45;;;2.10;;
823;SDS011;373;49.342;8.146;2024-03-02T03:59:10;1.95;;;1.85;;
823;SDS011;373;49.342;8.146;2024-03-02T04:01:38;2.85;;;2.30;;
823;SDS011;373;49.342;8.146;2024-03-02T04:04:08;2.60;;;2.40;;
823;SDS011;373;49.342;8.146;2024-03-02T04:06:36;2.83;;;2.28;;
823;SDS011;373;49.342;8.146;2024-03-02T04:09:03;2.75;;;2.13;;
823;SDS011;373;49.342;8.146;2024-03-02T04:11:30;3.17;;;2.50;;
823;SDS011;373;49.342;8.146;2024-03-02T04:13:58;4.78;;;2.60;;
823;SDS011;373;49.342;8.146;2024-03-02T04:16:25;3.35;;;2.60;;
823;SDS011;373;49.342;8.146;2024-03-02T04:18:52;2.30;;;2.10;;
823;SDS011;373;49.342;8.146;2024-03-02T04:21:19;3.90;;;3.30;;
823;SDS011;373;49.342;8.146;2024-03-02T04:23:48;4.20;;;3.72;;
823;SDS011;373;49.342;8.146;2024-03-02T04:26:15;3.55;;;3.17;;
823;SDS011;373;49.342;8.146;2024-03-02T04:28:47;5.05;;;4.20;;
823;SDS011;373;49.342;8.146;2024-03-02T04:31:14;3.60;;;2.90;;
823;SDS011;373;49.342;8.146;2024-03-02T04:33:41;3.85;;;3.50;;
823;SDS011;373;49.342;8.146;2024-03-02T04:36:08;4.03;;;3.72;;
823;SDS011;373;49.342;8.146;2024-03-02T04:38:36;5.53;;;4.35;;
823;SDS011;373;49.342;8.146;2024-03-02T04:41:04;6.65;;;5.35;;
823;SDS011;373;49.342;8.146;2024-03-02T04:43:32;7.75;;;5.97;;
823;SDS011;373;49.342;8.146;2024-03-02T04:46:00;7.70;;;7.00;;
823;SDS011;373;49.342;8.146;2024-03-02T04:48:27;8.10;;;7.32;;
823;SDS011;373;49.342;8.146;2024-03-02T04:50:54;10.20;;;9.20;;
823;SDS011;373;49.342;8.146;2024-03-02T04:53:22;10.27;;;9.27;;
823;SDS011;373;49.342;8.146;2024-03-02T04:55:49;11.63;;;10.43;;
823;SDS011;373;49.342;8.146;2024-03-02T04:58:54;13.02;;;11.38;;
823;SDS011;373;49.342;8.146;2024-03-02T05:01:21;12.93;;;11.63;;
823;SDS011;373;49.342;8.146;2024-03-02T05:03:49;13.00;;;11.70;;
823;SDS011;373;49.342;8.146;2024-03-02T05:06:16;12.75;;;11.45;;
823;SDS011;373;49.342;8.146;2024-03-02T05:08:43;12.27;;;10.98;;
823;SDS011;373;49.342;8.146;2024-03-02T05:11:11;12.80;;;11.50;;
823;SDS011;373;49.342;8.146;2024-03-02T05:14:20;13.32;;;11.70;;
823;SDS011;373;49.342;8.146;2024-03-02T05:16:47;12.70;;;11.00;;
823;SDS011;373;49.342;8.146;2024-03-02T05:19:14;13.32;;;11.48;;
823;SDS011;373;49.342;8.146;2024-03-02T05:21:41;13.68;;;11.73;;
823;SDS011;373;49.342;8.146;2024-03-02T05:24:09;13.80;;;12.32;;
823;SDS011;373;49.342;8.146;2024-03-02T05:26:36;12.13;;;10.93;;
823;SDS011;373;49.342;8.146;2024-03-02T05:29:03;13.27;;;11.85;;
823;SDS011;373;49.342;8.146;2024-03-02T05:31:32;14.18;;;12.93;;
823;SDS011;373;49.342;8.146;2024-03-02T05:33:59;14.63;;;13.13;;
823;SDS011;373;49.342;8.146;2024-03-02T05:36:26;13.32;;;12.02;;
823;SDS011;373;49.342;8.146;2024-03-02T05:38:53;14.02;;;12.73;;
823;SDS011;373;49.342;8.146;2024-03-02T05:41:20;14.70;;;13.18;;
823;SDS011;373;49.342;8.146;2024-03-02T05:43:47;14.68;;;13.23;;
823;SDS011;373;49.342;8.146;2024-03-02T05:46:14;15.20;;;13.70;;
823;SDS011;373;49.342;8.146;2024-03-02T05:48:43;15.75;;;13.95;;
823;SDS011;373;49.342;8.146;2024-03-02T05:51:10;15.63;;;14.13;;
823;SDS011;373;49.342;8.146;2024-03-02T05:53:37;14.70;;;13.27;;
823;SDS011;373;49.342;8.146;2024-03-02T05:56:04;16.90;;;15.20;;
823;SDS011;373;49.342;8.146;2024-03-02T05:58:32;16.80;;;15.15;;
823;SDS011;373;49.342;8.146;2024-03-02T06:01:13;15.77;;;14.27;;
823;SDS011;373;49.342;8.146;2024-03-02T06:03:40;15.98;;;14.43;;
823;SDS011;373;49.342;8.146;2024-03-02T06:06:08;15.52;;;14.00;;
823;SDS011;373;49.342;8.146;2024-03-02T06:08:35;14.90;;;13.50;;
823;SDS011;373;49.342;8.146;2024-03-02T06:11:03;16.33;;;14.73;;
823;SDS011;373;49.342;8.146;2024-03-02T06:13:30;16.15;;;14.45;;
823;SDS011;373;49.342;8.146;2024-03-02T06:15:57;15.52;;;14.02;;
823;SDS011;373;49.342;8.146;2024-03-02T06:18:24;17.48;;;14.32;;
823;SDS011;373;49.342;8.146;2024-03-02T06:20:51;16.17;;;14.48;;
823;SDS011;373;49.342;8.146;2024-03-02T06:23:19;16.80;;;15.00;;
823;SDS011;373;49.342;8.146;2024-03-02T06:25:46;15.70;;;14.20;;
823;SDS011;373;49.342;8.146;2024-03-02T06:28:13;15.52;;;13.93;;
823;SDS011;373;49.342;8.146;2024-03-02T06:30:41;16.15;;;14.23;;
823;SDS011;373;49.342;8.146;2024-03-02T06:33:08;15.65;;;13.00;;
823;SDS011;373;49.342;8.146;2024-03-02T06:35:35;15.45;;;13.82;;
823;SDS011;373;49.342;8.146;2024-03-02T06:38:03;14.18;;;12.88;;
823;SDS011;373;49.342;8.146;2024-03-02T06:40:31;14.95;;;13.30;;
823;SDS011;373;49.342;8.146;2024-03-02T06:42:59;14.63;;;13.13;;
823;SDS011;373;49.342;8.146;2024-03-02T06:45:26;14.18;;;12.70;;
823;SDS011;373;49.342;8.146;2024-03-02T06:47:55;13.80;;;12.27;;
823;SDS011;373;49.342;8.146;2024-03-02T06:50:22;14.60;;;13.13;;
823;SDS011;373;49.342;8.146;2024-03-02T06:52:50;14.82;;;13.43;;
823;SDS011;373;49.342;8.146;2024-03-02T06:55:17;14.82;;;13.23;;
823;SDS011;373;49.342;8.146;2024-03-02T06:57:46;14.82;;;13.18;;
823;SDS011;373;49.342;8.146;2024-03-02T07:00:13;14.98;;;13.38;;
823;SDS011;373;49.342;8.146;2024-03-02T07:02:43;14.20;;;12.88;;
823;SDS011;373;49.342;8.146;2024-03-02T07:05:10;14.25;;;12.85;;
823;SDS011;373;49.342;8.146;2024-03-02T07:07:38;13.23;;;11.80;;
823;SDS011;373;49.342;8.146;2024-03-02T07:10:05;13.23;;;11.82;;
823;SDS011;373;49.342;8.146;2024-03-02T07:12:33;13.88;;;12.52;;
823;SDS011;373;49.342;8.146;2024-03-02T07:15:02;13.88;;;11.63;;
823;SDS011;373;49.342;8.146;2024-03-02T07:17:55;13.40;;;12.10;;
823;SDS011;373;49.342;8.146;2024-03-02T07:20:22;14.27;;;12.77;;
823;SDS011;373;49.342;8.146;2024-03-02T07:22:49;15.27;;;13.68;;
823;SDS011;373;49.342;8.146;2024-03-02T07:25:16;14.52;;;13.10;;
823;SDS011;373;49.342;8.146;2024-03-02T07:27:43;14.07;;;12.82;;
823;SDS011;373;49.342;8.146;2024-03-02T07:30:14;14.13;;;12.75;;
823;SDS011;373;49.342;8.146;2024-03-02T07:32:42;13.77;;;12.48;;
823;SDS011;373;49.342;8.146;2024-03-02T07:35:11;13.90;;;12.70;;
823;SDS011;373;49.342;8.146;2024-03-02T07:37:39;13.93;;;12.52;;
823;SDS011;373;49.342;8.146;2024-03-02T07:40:08;13.00;;;11.70;;
823;SDS011;373;49.342;8.146;2024-03-02T07:42:37;12.02;;;10.90;;
823;SDS011;373;49.342;8.146;2024-03-02T07:45:05;12.73;;;11.45;;
823;SDS011;373;49.342;8.146;2024-03-02T07:47:34;13.07;;;11.75;;
823;SDS011;373;49.342;8.146;2024-03-02T07:50:01;12.43;;;11.15;;
823;SDS011;373;49.342;8.146;2024-03-02T07:52:31;9.50;;;8.60;;
823;SDS011;373;49.342;8.146;2024-03-02T07:54:58;10.15;;;9.25;;
823;SDS011;373;49.342;8.146;2024-03-02T07:57:25;10.70;;;9.68;;
823;SDS011;373;49.342;8.146;2024-03-02T07:59:52;9.80;;;8.88;;
823;SDS011;373;49.342;8.146;2024-03-02T08:02:19;8.95;;;8.15;;
823;SDS011;373;49.342;8.146;2024-03-02T08:04:48;7.78;;;7.18;;
823;SDS011;373;49.342;8.146;2024-03-02T08:07:15;7.55;;;6.85;;
823;SDS011;373;49.342;8.146;2024-03-02T08:09:43;7.25;;;6.18;;
823;SDS011;373;49.342;8.146;2024-03-02T08:12:10;7.00;;;6.32;;
823;SDS011;373;49.342;8.146;2024-03-02T08:14:37;6.60;;;6.00;;
823;SDS011;373;49.342;8.146;2024-03-02T08:17:05;6.70;;;6.10;;
823;SDS011;373;49.342;8.146;2024-03-02T08:19:35;5.72;;;5.22;;
823;SDS011;373;49.342;8.146;2024-03-02T08:22:03;7.03;;;5.88;;
823;SDS011;373;49.342;8.146;2024-03-02T08:24:31;5.88;;;5.38;;
823;SDS011;373;49.342;8.146;2024-03-02T08:26:58;5.43;;;5.03;;
823;SDS011;373;49.342;8.146;2024-03-02T08:29:25;4.68;;;4.20;;
823;SDS011;373;49.342;8.146;2024-03-02T08:31:53;5.20;;;4.80;;
823;SDS011;373;49.342;8.146;2024-03-02T08:34:20;5.97;;;4.38;;
823;SDS011;373;49.342;8.146;2024-03-02T08:36:47;5.15;;;4.03;;
823;SDS011;373;49.342;8.146;2024-03-02T08:39:15;5.80;;;5.28;;
823;SDS011;373;49.342;8.146;2024-03-02T08:41:44;5.47;;;4.88;;
823;SDS011;373;49.342;8.146;2024-03-02T08:44:12;5.03;;;4.53;;
823;SDS011;373;49.342;8.146;2024-03-02T08:46:39;5.75;;;5.25;;
823;SDS011;373;49.342;8.146;2024-03-02T08:49:07;6.72;;;5.55;;
823;SDS011;373;49.342;8.146;2024-03-02T08:51:34;6.20;;;5.60;;
823;SDS011;373;49.342;8.146;2024-03-02T08:54:01;7.28;;;6.57;;
823;SDS011;373;49.342;8.146;2024-03-02T08:56:30;10.02;;;5.72;;
823;SDS011;373;49.342;8.146;2024-03-02T08:58:57;5.93;;;5.32;;
823;SDS011;373;49.342;8.146;2024-03-02T09:01:25;5.88;;;5.38;;
823;SDS011;373;49.342;8.146;2024-03-02T09:03:52;6.88;;;6.18;;
823;SDS011;373;49.342;8.146;2024-03-02T09:06:19;6.45;;;5.85;;
823;SDS011;373;49.342;8.146;2024-03-02T09:08:46;6.68;;;6.00;;
823;SDS011;373;49.342;8.146;2024-03-02T09:11:14;6.18;;;5.55;;
823;SDS011;373;49.342;8.146;2024-03-02T09:13:43;6.60;;;5.90;;
823;SDS011;373;49.342;8.146;2024-03-02T09:16:10;7.38;;;6.70;;
823;SDS011;373;49.342;8.146;2024-03-02T09:18:39;7.28;;;6.32;;
823;SDS011;373;49.342;8.146;2024-03-02T09:21:06;6.90;;;6.20;;
823;SDS011;373;49.342;8.146;2024-03-02T09:23:34;6.78;;;6.13;;
823;SDS011;373;49.342;8.146;2024-03-02T09:26:01;6.68;;;6.07;;
823;SDS011;373;49.342;8.146;2024-03-02T09:28:29;6.38;;;5.85;;
823;SDS011;373;49.342;8.146;2024-03-02T09:30:58;6.40;;;5.88;;
823;SDS011;373;49.342;8.146;2024-03-02T09:33:27;7.25;;;6.55;;
823;SDS011;373;49.342;8.146;2024-03-02T09:35:54;7.20;;;6.60;;
823;SDS011;373;49.342;8.146;2024-03-02T09:38:22;6.55;;;6.00;;
823;SDS011;373;49.342;8.146;2024-03-02T09:40:50;6.82;;;6.28;;
823;SDS011;373;49.342;8.146;2024-03-02T09:43:18;6.88;;;6.28;;
823;SDS011;373;49.342;8.146;2024-03-02T09:45:45;8.43;;;7.65;;
823;SDS011;373;49.342;8.146;2024-03-02T09:48:15;7.78;;;7.18;;
823;SDS011;373;49.342;8.146;2024-03-02T09:50:43;8.82;;;8.02;;
823;SDS011;373;49.342;8.146;2024-03-02T09:53:13;8.18;;;7.35;;
823;SDS011;373;49.342;8.146;2024-03-02T09:55:41;9.10;;;8.30;;
823;SDS011;373;49.342;8.146;2024-03-02T09:58:12;8.07;;;7.28;;
823;SDS011;373;49.342;8.146;2024-03-02T10:00:39;8.40;;;7.50;;
823;SDS011;373;49.342;8.146;2024-03-02T10:03:10;9.32;;;8.43;;
823;SDS011;373;49.342;8.146;2024-03-02T10:05:50;8.10;;;7.40;;
823;SDS011;373;49.342;8.146;2024-03-02T10:08:18;8.02;;;7.22;;
823;SDS011;373;49.342;8.146;2024-03-02T10:17:26;7.95;;;6.93;;
823;SDS011;373;49.342;8.146;2024-03-02T10:20:40;7.22;;;6.63;;
823;SDS011;373;49.342;8.146;2024-03-02T10:23:12;7.22;;;6.32;;
823;SDS011;373;49.342;8.146;2024-03-02T10:25:40;5.72;;;5.22;;
823;SDS011;373;49.342;8.146;2024-03-02T10:28:08;6.22;;;5.72;;
823;SDS011;373;49.342;8.146;2024-03-02T10:30:35;6.40;;;5.80;;
823;SDS011;373;49.342;8.146;2024-03-02T10:33:03;7.18;;;6.47;;
823;SDS011;373;49.342;8.146;2024-03-02T10:35:32;5.95;;;5.45;;
823;SDS011;373;49.342;8.146;2024-03-02T10:38:03;6.50;;;5.90;;
823;SDS011;373;49.342;8.146;2024-03-02T10:40:32;5.50;;;5.05;;
823;SDS011;373;49.342;8.146;2024-03-02T10:43:00;6.25;;;5.65;;
823;SDS011;373;49.342;8.146;2024-03-02T10:45:28;5.22;;;4.72;;
823;SDS011;373;49.342;8.146;2024-03-02T10:47:56;5.47;;;4.38;;
823;SDS011;373;49.342;8.146;2024-03-02T10:50:24;5.30;;;4.90;;
823;SDS011;373;49.342;8.146;2024-03-02T10:52:51;6.13;;;5.63;;
823;SDS011;373;49.342;8.146;2024-03-02T10:55:18;4.68;;;4.10;;
823;SDS011;373;49.342;8.146;2024-03-02T10:57:50;4.30;;;3.88;;
823;SDS011;373;49.342;8.146;2024-03-02T11:00:19;4.20;;;3.80;;
823;SDS011;373;49.342;8.146;2024-03-02T11:02:50;3.10;;;2.80;;
823;SDS011;373;49.342;8.146;2024-03-02T11:05:23;3.20;;;3.00;;
823;SDS011;373;49.342;8.146;2024-03-02T11:07:53;3.00;;;2.80;;
823;SDS011;373;49.342;8.146;2024-03-02T11:10:28;3.03;;;2.72;;
823;SDS011;373;49.342;8.146;2024-03-02T11:13:04;3.30;;;2.95;;
823;SDS011;373;49.342;8.146;2024-03-02T11:15:35;2.60;;;2.40;;
823;SDS011;373;49.342;8.146;2024-03-02T11:18:03;2.90;;;2.60;;
823;SDS011;373;49.342;8.146;2024-03-02T11:20:35;3.15;;;2.85;;
823;SDS011;373;49.342;8.146;2024-03-02T11:23:05;3.47;;;2.85;;
823;SDS011;373;49.342;8.146;2024-03-02T11:25:33;3.97;;;2.75;;
823;SDS011;373;49.342;8.146;2024-03-02T11:28:01;3.03;;;2.20;;
823;SDS011;373;49.342;8.146;2024-03-02T11:30:49;2.80;;;2.60;;
823;SDS011;373;49.342;8.146;2024-03-02T11:33:24;3.13;;;2.92;;
823;SDS011;373;49.342;8.146;2024-03-02T11:35:52;2.30;;;2.10;;
823;SDS011;373;49.342;8.146;2024-03-02T11:38:20;3.58;;;2.90;;
823;SDS011;373;49.342;8.146;2024-03-02T11:40:47;3.53;;;3.22;;
823;SDS011;373;49.342;8.146;2024-03-02T11:43:15;4.00;;;3.60;;
823;SDS011;373;49.342;8.146;2024-03-02T11:45:43;3.70;;;3.40;;
823;SDS011;373;49.342;8.146;2024-03-02T11:48:11;3.85;;;3.55;;
823;SDS011;373;49.342;8.146;2024-03-02T11:50:40;4.32;;;3.85;;
823;SDS011;373;49.342;8.146;2024-03-02T11:53:09;3.88;;;3.58;;
823;SDS011;373;49.342;8.146;2024-03-02T11:55:38;4.38;;;3.95;;
823;SDS011;373;49.342;8.146;2024-03-02T11:58:06;3.53;;;3.22;;
823;SDS011;373;49.342;8.146;2024-03-02T12:00:34;4.22;;;3.90;;
823;SDS011;373;49.342;8.146;2024-03-02T12:03:02;4.50;;;3.95;;
823;SDS011;373;49.342;8.146;2024-03-02T12:08:20;3.58;;;3.28;;
823;SDS011;373;49.342;8.146;2024-03-02T12:10:58;4.25;;;3.75;;
823;SDS011;373;49.342;8.146;2024-03-02T12:13:29;3.85;;;3.40;;
823;SDS011;373;49.342;8.146;2024-03-02T12:15:57;3.05;;;2.85;;
823;SDS011;373;49.342;8.146;2024-03-02T12:18:25;4.25;;;3.95;;
823;SDS011;373;49.342;8.146;2024-03-02T12:20:52;3.28;;;2.95;;
823;SDS011;373;49.342;8.146;2024-03-02T12:23:22;3.83;;;3.50;;
823;SDS011;373;49.342;8.146;2024-03-02T12:25:49;3.58;;;3.28;;
823;SDS011;373;49.342;8.146;2024-03-02T12:28:17;3.45;;;3.15;;
823;SDS011;373;49.342;8.146;2024-03-02T12:30:44;4.07;;;3.67;;
823;SDS011;373;49.342;8.146;2024-03-02T12:33:14;3.97;;;3.53;;
823;SDS011;373;49.342;8.146;2024-03-02T12:35:41;3.63;;;3.33;;
823;SDS011;373;49.342;8.146;2024-03-02T12:38:08;5.93;;;3.97;;
823;SDS011;373;49.342;8.146;2024-03-02T12:40:37;4.38;;;3.97;;
823;SDS011;373;49.342;8.146;2024-03-02T12:43:05;3.50;;;3.20;;
823;SDS011;373;49.342;8.146;2024-03-02T12:45:32;3.70;;;3.35;;
823;SDS011;373;49.342;8.146;2024-03-02T12:47:59;4.13;;;3.72;;
823;SDS011;373;49.342;8.146;2024-03-02T12:50:28;4.20;;;3.83;;
823;SDS011;373;49.342;8.146;2024-03-02T12:52:55;2.92;;;2.72;;
823;SDS011;373;49.342;8.146;2024-03-02T12:55:23;3.58;;;3.22;;
823;SDS011;373;49.342;8.146;2024-03-02T12:57:50;4.00;;;3.40;;
823;SDS011;373;49.342;8.146;2024-03-02T13:00:18;3.28;;;2.97;;
823;SDS011;373;49.342;8.146;2024-03-02T13:02:46;3.53;;;3.22;;
823;SDS011;373;49.342;8.146;2024-03-02T13:05:15;3.28;;;2.97;;
823;SDS011;373;49.342;8.146;2024-03-02T13:07:46;3.40;;;3.10;;
823;SDS011;373;49.342;8.146;2024-03-02T13:10:13;3.97;;;3.60;;
823;SDS011;373;49.342;8.146;2024-03-02T13:12:40;3.38;;;2.97;;
823;SDS011;373;49.342;8.146;2024-03-02T13:15:08;3.72;;;2.78;;
823;SDS011;373;49.342;8.146;2024-03-02T13:17:35;2.50;;;2.10;;
823;SDS011;373;49.342;8.146;2024-03-02T13:20:03;3.30;;;2.17;;
823;SDS011;373;49.342;8.146;2024-03-02T13:22:33;2.20;;;2.10;;
823;SDS011;373;49.342;8.146;2024-03-02T13:25:01;3.75;;;2.35;;
823;SDS011;373;49.342;8.146;2024-03-02T13:27:30;3.08;;;2.10;;
823;SDS011;373;49.342;8.146;2024-03-02T13:29:57;2.30;;;2.10;;
823;SDS011;373;49.342;8.146;2024-03-02T13:32:24;2.90;;;2.33;;
823;SDS011;373;49.342;8.146;2024-03-02T13:34:51;3.38;;;3.03;;
823;SDS011;373;49.342;8.146;2024-03-02T13:37:19;2.70;;;2.35;;
823;SDS011;373;49.342;8.146;2024-03-02T13:39:46;2.80;;;2.60;;
823;SDS011;373;49.342;8.146;2024-03-02T13:42:15;3.03;;;2.80;;
823;SDS011;373;49.342;8.146;2024-03-02T13:44:43;3.45;;;2.90;;
823;SDS011;373;49.342;8.146;2024-03-02T13:47:10;2.80;;;2.50;;
823;SDS011;373;49.342;8.146;2024-03-02T13:49:38;3.45;;;2.92;;
823;SDS011;373;49.342;8.146;2024-03-02T13:52:09;3.15;;;2.60;;
823;SDS011;373;49.342;8.146;2024-03-02T13:54:38;2.58;;;2.38;;
823;SDS011;373;49.342;8.146;2024-03-02T13:57:05;2.70;;;2.50;;
823;SDS011;373;49.342;8.146;2024-03-02T13:59:34;2.60;;;2.30;;
823;SDS011;373;49.342;8.146;2024-03-02T14:02:02;2.67;;;2.47;;
823;SDS011;373;49.342;8.146;2024-03-02T14:04:30;2.33;;;1.98;;
823;SDS011;373;49.342;8.146;2024-03-02T14:06:58;2.00;;;1.80;;
823;SDS011;373;49.342;8.146;2024-03-02T14:09:25;1.75;;;1.65;;
823;SDS011;373;49.342;8.146;2024-03-02T14:11:53;1.80;;;1.70;;
823;SDS011;373;49.342;8.146;2024-03-02T14:14:20;2.53;;;2.33;;
823;SDS011;373;49.342;8.146;2024-03-02T14:16:49;1.83;;;1.73;;
823;SDS011;373;49.342;8.146;2024-03-02T14:19:16;1.67;;;1.58;;
823;SDS011;373;49.342;8.146;2024-03-02T14:21:43;1.70;;;1.35;;
823;SDS011;373;49.342;8.146;2024-03-02T14:24:11;2.08;;;1.75;;
823;SDS011;373;49.342;8.146;2024-03-02T14:26:38;1.90;;;1.70;;
823;SDS011;373;49.342;8.146;2024-03-02T14:29:06;2.30;;;1.63;;
823;SDS011;373;49.342;8.146;2024-03-02T14:31:33;2.55;;;1.88;;
823;SDS011;373;49.342;8.146;2024-03-02T14:34:01;1.65;;;1.55;;
823;SDS011;373;49.342;8.146;2024-03-02T14:36:29;2.90;;;1.80;;
823;SDS011;373;49.342;8.146;2024-03-02T14:38:56;2.75;;;1.85;;
823;SDS011;373;49.342;8.146;2024-03-02T14:41:23;1.50;;;1.40;;
823;SDS011;373;49.342;8.146;2024-03-02T14:43:49;2.30;;;2.10;;
823;SDS011;373;49.342;8.146;2024-03-02T14:46:16;1.70;;;1.60;;
823;SDS011;373;49.342;8.146;2024-03-02T14:48:44;2.45;;;1.92;;
823;SDS011;373;49.342;8.146;2024-03-02T14:51:14;1.83;;;1.73;;
823;SDS011;373;49.342;8.146;2024-03-02T14:53:41;2.10;;;1.90;;
823;SDS011;373;49.342;8.146;2024-03-02T14:56:08;1.95;;;1.80;;
823;SDS011;373;49.342;8.146;2024-03-02T14:58:35;2.25;;;1.70;;
823;SDS011;373;49.342;8.146;2024-03-02T15:01:03;2.15;;;1.60;;
823;SDS011;373;49.342;8.146;2024-03-02T15:03:31;1.70;;;1.60;;
823;SDS011;373;49.342;8.146;2024-03-02T15:05:58;2.92;;;1.50;;
823;SDS011;373;49.342;8.146;2024-03-02T15:08:26;2.63;;;1.90;;
823;SDS011;373;49.342;8.146;2024-03-02T15:10:53;2.47;;;1.77;;
823;SDS011;373;49.342;8.146;2024-03-02T15:13:22;3.78;;;1.88;;
823;SDS011;373;49.342;8.146;2024-03-02T15:15:50;1.70;;;1.50;;
823;SDS011;373;49.342;8.146;2024-03-02T15:18:18;2.00;;;1.60;;
823;SDS011;373;49.342;8.146;2024-03-02T15:20:45;1.77;;;1.67;;
823;SDS011;373;49.342;8.146;2024-03-02T15:23:12;1.95;;;1.73;;
823;SDS011;373;49.342;8.146;2024-03-02T15:25:40;2.50;;;1.83;;
823;SDS011;373;49.342;8.146;2024-03-02T15:28:07;1.90;;;1.80;;
823;SDS011;373;49.342;8.146;2024-03-02T15:30:34;2.53;;;1.60;;
823;SDS011;373;49.342;8.146;2024-03-02T15:33:02;1.95;;;1.63;;
823;SDS011;373;49.342;8.146;2024-03-02T15:35:29;2.13;;;2.03;;
823;SDS011;373;49.342;8.146;2024-03-02T15:37:56;2.45;;;1.95;;
823;SDS011;373;49.342;8.146;2024-03-02T15:40:23;1.73;;;1.63;;
823;SDS011;373;49.342;8.146;2024-03-02T15:42:51;1.60;;;1.50;;
823;SDS011;373;49.342;8.146;2024-03-02T15:45:18;1.75;;;1.65;;
823;SDS011;373;49.342;8.146;2024-03-02T15:47:45;1.75;;;1.50;;
823;SDS011;373;49.342;8.146;2024-03-02T15:50:13;2.17;;;1.70;;
823;SDS011;373;49.342;8.146;2024-03-02T15:52:40;3.33;;;1.63;;
823;SDS011;373;49.342;8.146;2024-03-02T15:55:08;3.42;;;3.13;;
823;SDS011;373;49.342;8.146;2024-03-02T15:57:35;2.50;;;2.30;;